createdAt,value
2023-04-25T00:02:26.872Z,13.74
2023-04-25T00:04:54.797Z,13.77
2023-04-25T00:07:25.240Z,13.79
2023-04-25T00:09:52.168Z,13.77
2023-04-25T00:12:18.976Z,13.75
2023-04-25T00:14:46.958Z,13.77
2023-04-25T00:17:13.983Z,13.76
2023-04-25T00:19:40.989Z,13.77
2023-04-25T00:22:08.088Z,13.79
2023-04-25T00:24:34.896Z,13.78
2023-04-25T00:27:01.980Z,13.79
2023-04-25T00:29:28.991Z,13.79
2023-04-25T00:31:58.457Z,13.79
2023-04-25T00:34:29.876Z,13.79
2023-04-25T00:36:57.305Z,13.77
2023-04-25T00:39:24.117Z,13.73
2023-04-25T00:41:53.626Z,13.70
2023-04-25T00:44:23.627Z,13.65
2023-04-25T00:46:51.021Z,13.60
2023-04-25T00:49:19.918Z,13.54
2023-04-25T00:51:48.686Z,13.48
2023-04-25T00:54:16.716Z,13.39
2023-04-25T00:56:45.554Z,13.37
2023-04-25T00:59:16.191Z,13.29
2023-04-25T01:01:45.913Z,13.26
2023-04-25T01:04:14.122Z,13.15
2023-04-25T01:06:41.975Z,13.07
2023-04-25T01:09:08.921Z,13.10
2023-04-25T04:53:29.291Z,10.38
2023-04-25T04:56:09.719Z,10.47
2023-04-25T04:59:03.138Z,10.49
2023-04-25T06:25:56.420Z,10.60
2023-04-25T06:28:24.666Z,10.59
2023-04-25T06:30:56.011Z,10.58
2023-04-25T06:33:27.569Z,10.64
2023-04-25T06:35:56.735Z,10.63
2023-04-25T06:38:31.385Z,10.68
2023-04-25T06:41:00.419Z,10.75
2023-04-25T06:43:33.252Z,10.76
2023-04-25T06:46:17.115Z,10.78
2023-04-25T06:48:45.230Z,10.81
2023-04-25T06:51:13.618Z,10.76
2023-04-25T06:53:40.781Z,10.73
2023-04-25T06:56:12.909Z,10.65
2023-04-25T06:58:53.330Z,10.59
2023-04-25T07:01:36.539Z,10.65
2023-04-25T07:04:10.613Z,10.60
2023-04-25T07:06:45.076Z,10.50
2023-04-25T07:09:16.875Z,10.59
2023-04-25T07:11:48.694Z,10.65
2023-04-25T07:14:15.615Z,10.71
2023-04-25T07:16:44.840Z,10.77
2023-04-25T07:19:13.718Z,10.76
2023-04-25T07:21:40.662Z,10.81
2023-04-25T07:24:07.375Z,10.90
2023-04-25T07:26:41.360Z,10.93
2023-04-25T07:29:23.117Z,11.00
2023-04-25T07:31:50.098Z,11.02
2023-04-25T07:34:17.173Z,11.01
2023-04-25T07:36:46.053Z,11.03
2023-04-25T07:39:13.518Z,11.03
2023-04-25T07:41:41.171Z,10.95
2023-04-25T07:44:09.766Z,10.91
2023-04-25T07:46:37.828Z,10.90
2023-04-25T07:49:12.333Z,10.85
2023-04-25T07:51:49.780Z,10.86
2023-04-25T07:54:17.751Z,10.85
2023-04-25T07:56:53.340Z,10.88
2023-04-25T07:59:22.664Z,10.95
2023-04-25T08:01:49.970Z,11.01
2023-04-25T08:04:18.526Z,11.07
2023-04-25T08:07:06.452Z,11.12
2023-04-25T08:09:40.588Z,11.19
2023-04-25T08:12:15.272Z,11.21
2023-04-25T08:14:42.264Z,11.21
2023-04-25T08:17:16.523Z,11.28
2023-04-25T08:19:43.730Z,11.31
2023-04-25T08:22:16.583Z,11.34
2023-04-25T08:24:51.949Z,11.33
2023-04-25T08:27:19.930Z,11.25
2023-04-25T08:29:47.291Z,11.27
2023-04-25T08:32:14.798Z,11.18
2023-04-25T08:34:51.892Z,11.15
2023-04-25T08:37:20.187Z,11.10
2023-04-25T08:40:16.045Z,11.11
2023-04-25T08:42:47.889Z,11.05
2023-04-25T08:45:15.257Z,10.97
2023-04-25T09:11:24.566Z,11.37
2023-04-25T09:14:21.179Z,11.74
2023-04-25T10:34:43.523Z,12.70
2023-04-25T11:04:36.040Z,12.52
2023-04-25T11:07:06.931Z,12.51
2023-04-25T11:09:42.540Z,12.52
2023-04-25T11:12:12.754Z,12.49
2023-04-25T11:14:43.496Z,12.45
2023-04-25T11:17:11.515Z,12.51
2023-04-25T11:19:42.596Z,12.50
2023-04-25T11:22:11.138Z,12.41
2023-04-25T11:24:43.009Z,12.41
2023-04-25T11:27:09.964Z,12.38
2023-04-25T11:29:36.998Z,12.32
2023-04-25T11:32:04.494Z,12.23
2023-04-25T11:34:33.192Z,12.17
2023-04-25T11:37:01.083Z,12.16
2023-04-25T11:39:30.526Z,12.11
2023-04-25T11:41:57.407Z,12.01
2023-04-25T11:44:24.119Z,11.94
2023-04-25T11:46:51.090Z,11.85
2023-04-25T11:49:18.569Z,11.66
2023-04-25T11:51:52.987Z,11.95
2023-04-25T11:54:20.098Z,12.25
2023-04-25T11:56:49.037Z,12.58
2023-04-25T13:54:28.116Z,12.60
2023-04-25T13:56:59.029Z,12.52
2023-04-25T13:59:28.666Z,12.45
2023-04-25T14:01:58.265Z,12.43
2023-04-25T14:04:25.593Z,12.41
2023-04-25T14:06:55.662Z,12.39
2023-04-25T14:09:27.758Z,12.33
2023-04-25T14:12:02.775Z,12.28
2023-04-25T14:14:31.683Z,12.22
2023-04-25T14:17:03.007Z,12.17
2023-04-25T14:19:32.414Z,12.18
2023-04-25T14:22:01.905Z,12.12
2023-04-25T14:24:30.909Z,11.99
2023-04-25T14:26:59.809Z,11.95
2023-04-25T14:29:31.299Z,11.92
2023-04-25T14:32:01.384Z,11.92
2023-04-25T14:34:28.215Z,11.96
2023-04-25T14:37:00.599Z,11.93
2023-04-25T14:39:27.135Z,11.89
2023-04-25T14:41:58.349Z,11.85
2023-04-25T14:44:30.140Z,11.77
2023-04-25T14:46:59.845Z,11.76
2023-04-25T14:49:28.480Z,11.72
2023-04-25T14:51:57.929Z,11.70
2023-04-25T14:54:27.731Z,11.67
2023-04-25T14:56:58.203Z,11.58
2023-04-25T14:59:30.397Z,11.54
2023-04-25T16:51:00.919Z,11.56
2023-04-25T16:53:27.543Z,11.57
2023-04-25T16:55:56.585Z,11.57
2023-04-25T16:58:24.218Z,11.59
2023-04-25T17:00:53.131Z,11.59
2023-04-25T17:03:21.203Z,11.62
2023-04-25T17:05:56.093Z,11.61
2023-04-25T17:08:24.833Z,11.65
2023-04-25T17:10:52.325Z,11.67
2023-04-25T17:13:30.546Z,11.66
2023-04-25T17:16:10.259Z,11.63
2023-04-25T17:18:39.422Z,11.62
2023-04-25T17:21:06.606Z,11.61
2023-04-25T17:23:35.459Z,11.60
2023-04-25T17:26:02.615Z,11.61
2023-04-25T17:28:29.516Z,11.60
2023-04-25T17:30:58.083Z,11.59
2023-04-25T17:33:44.813Z,11.58
2023-04-25T17:36:14.417Z,11.57
2023-04-25T17:38:41.282Z,11.57
2023-04-25T17:41:10.147Z,11.55
2023-04-25T17:43:37.124Z,11.51
2023-04-25T17:46:04.111Z,11.47
2023-04-25T17:48:31.201Z,11.45
2023-04-25T17:51:03.128Z,11.41
2023-04-25T17:53:32.660Z,11.37
2023-04-25T17:56:03.989Z,11.32
2023-04-25T17:58:32.846Z,11.31
2023-04-25T18:01:04.783Z,11.27
2023-04-25T18:03:34.078Z,11.24
2023-04-25T18:06:04.174Z,11.18
2023-04-25T18:08:33.711Z,11.16
2023-04-25T18:11:00.779Z,11.12
2023-04-25T18:13:30.241Z,11.07
2023-04-25T18:16:00.224Z,11.06
2023-04-25T18:18:33.648Z,11.03
2023-04-25T18:21:08.501Z,10.92
2023-04-25T18:23:46.405Z,10.89
2023-04-25T18:26:16.640Z,10.89
2023-04-25T18:28:45.000Z,10.90
2023-04-25T18:31:13.390Z,10.87
2023-04-25T18:33:42.132Z,10.90
2023-04-25T18:36:09.846Z,10.89
2023-04-25T21:08:05.255Z,9.65
2023-04-25T21:10:37.285Z,9.60
2023-04-25T21:13:04.579Z,9.61
2023-04-25T21:15:33.695Z,9.63
2023-04-25T21:18:01.272Z,9.59
2023-04-25T21:20:30.074Z,9.54
2023-04-25T21:22:56.735Z,9.57
2023-04-25T21:25:30.410Z,9.54
2023-04-25T21:27:58.132Z,9.56
2023-04-25T21:30:28.070Z,9.58
2023-04-25T22:52:22.914Z,8.89
